sensor_id;sensor_type;location;lat;lon;timestamp;temperature;humidity
4308;DHT22;2167;53.448;9.984;2022-11-28T00:00:40;6.40;28.90
4308;DHT22;2167;53.448;9.984;2022-11-28T00:03:06;6.40;29.20
4308;DHT22;2167;53.448;9.984;2022-11-28T00:05:34;6.30;29.20
4308;DHT22;2167;53.448;9.984;2022-11-28T00:08:00;6.40;29.40
4308;DHT22;2167;53.448;9.984;2022-11-28T00:10:25;6.40;29.30
4308;DHT22;2167;53.448;9.984;2022-11-28T00:12:51;6.40;29.40
4308;DHT22;2167;53.448;9.984;2022-11-28T00:15:16;6.50;29.30
4308;DHT22;2167;53.448;9.984;2022-11-28T00:17:42;6.40;29.00
4308;DHT22;2167;53.448;9.984;2022-11-28T00:20:08;6.40;28.90
4308;DHT22;2167;53.448;9.984;2022-11-28T00:22:33;6.40;28.90
4308;DHT22;2167;53.448;9.984;2022-11-28T00:24:59;6.40;28.70
4308;DHT22;2167;53.448;9.984;2022-11-28T00:27:24;6.40;28.80
4308;DHT22;2167;53.448;9.984;2022-11-28T00:29:50;6.50;28.70
4308;DHT22;2167;53.448;9.984;2022-11-28T00:32:15;6.50;28.50
4308;DHT22;2167;53.448;9.984;2022-11-28T00:34:41;6.40;28.40
4308;DHT22;2167;53.448;9.984;2022-11-28T00:37:07;6.40;28.30
4308;DHT22;2167;53.448;9.984;2022-11-28T00:39:32;6.40;28.60
4308;DHT22;2167;53.448;9.984;2022-11-28T00:41:58;6.50;28.70
4308;DHT22;2167;53.448;9.984;2022-11-28T00:44:23;6.40;28.30
4308;DHT22;2167;53.448;9.984;2022-11-28T00:46:49;6.40;28.20
4308;DHT22;2167;53.448;9.984;2022-11-28T00:49:15;6.40;28.50
4308;DHT22;2167;53.448;9.984;2022-11-28T00:51:40;6.50;28.70
4308;DHT22;2167;53.448;9.984;2022-11-28T00:54:06;6.50;28.20
4308;DHT22;2167;53.448;9.984;2022-11-28T00:56:35;6.50;28.10
4308;DHT22;2167;53.448;9.984;2022-11-28T00:59:01;6.50;28.00
4308;DHT22;2167;53.448;9.984;2022-11-28T01:01:46;6.60;27.70
4308;DHT22;2167;53.448;9.984;2022-11-28T01:04:14;6.50;27.20
4308;DHT22;2167;53.448;9.984;2022-11-28T01:06:48;6.40;27.50
4308;DHT22;2167;53.448;9.984;2022-11-28T01:09:19;6.40;27.90
4308;DHT22;2167;53.448;9.984;2022-11-28T01:11:46;6.50;28.20
4308;DHT22;2167;53.448;9.984;2022-11-28T01:14:13;6.50;28.00
4308;DHT22;2167;53.448;9.984;2022-11-28T01:16:39;6.60;27.90
4308;DHT22;2167;53.448;9.984;2022-11-28T01:19:05;6.60;27.50
4308;DHT22;2167;53.448;9.984;2022-11-28T01:21:31;6.60;27.10
4308;DHT22;2167;53.448;9.984;2022-11-28T01:23:57;6.60;26.70
4308;DHT22;2167;53.448;9.984;2022-11-28T01:26:24;6.50;26.50
4308;DHT22;2167;53.448;9.984;2022-11-28T01:28:51;6.50;27.00
4308;DHT22;2167;53.448;9.984;2022-11-28T01:31:21;6.50;26.80
4308;DHT22;2167;53.448;9.984;2022-11-28T01:33:47;6.50;27.10
4308;DHT22;2167;53.448;9.984;2022-11-28T01:36:13;6.50;27.40
4308;DHT22;2167;53.448;9.984;2022-11-28T01:38:41;6.40;27.70
4308;DHT22;2167;53.448;9.984;2022-11-28T01:41:07;6.40;27.90
4308;DHT22;2167;53.448;9.984;2022-11-28T01:43:34;6.40;28.70
4308;DHT22;2167;53.448;9.984;2022-11-28T01:46:00;6.30;28.30
4308;DHT22;2167;53.448;9.984;2022-11-28T01:48:33;6.30;28.40
4308;DHT22;2167;53.448;9.984;2022-11-28T01:51:04;6.30;28.60
4308;DHT22;2167;53.448;9.984;2022-11-28T01:53:32;6.30;28.70
4308;DHT22;2167;53.448;9.984;2022-11-28T01:56:06;6.30;28.60
4308;DHT22;2167;53.448;9.984;2022-11-28T01:58:35;6.20;28.80
4308;DHT22;2167;53.448;9.984;2022-11-28T02:01:04;6.30;28.90
4308;DHT22;2167;53.448;9.984;2022-11-28T02:03:33;6.20;29.10
4308;DHT22;2167;53.448;9.984;2022-11-28T02:06:02;6.30;29.10
4308;DHT22;2167;53.448;9.984;2022-11-28T02:08:32;6.20;28.70
4308;DHT22;2167;53.448;9.984;2022-11-28T02:22:48;6.10;29.70
4308;DHT22;2167;53.448;9.984;2022-11-28T02:25:44;6.10;29.50
4308;DHT22;2167;53.448;9.984;2022-11-28T02:34:02;6.10;29.80
4308;DHT22;2167;53.448;9.984;2022-11-28T02:36:32;6.00;29.20
4308;DHT22;2167;53.448;9.984;2022-11-28T02:42:08;6.00;28.70
4308;DHT22;2167;53.448;9.984;2022-11-28T02:44:43;5.90;28.80
4308;DHT22;2167;53.448;9.984;2022-11-28T02:47:21;6.00;28.70
4308;DHT22;2167;53.448;9.984;2022-11-28T02:50:02;6.00;28.80
4308;DHT22;2167;53.448;9.984;2022-11-28T02:52:35;6.00;28.50
4308;DHT22;2167;53.448;9.984;2022-11-28T02:55:02;6.00;28.20
4308;DHT22;2167;53.448;9.984;2022-11-28T02:57:40;6.00;27.90
4308;DHT22;2167;53.448;9.984;2022-11-28T03:06:26;6.00;26.90
4308;DHT22;2167;53.448;9.984;2022-11-28T03:14:48;6.00;26.70
4308;DHT22;2167;53.448;9.984;2022-11-28T03:20:20;6.00;26.60
4308;DHT22;2167;53.448;9.984;2022-11-28T03:28:17;6.00;25.50
4308;DHT22;2167;53.448;9.984;2022-11-28T03:31:02;6.00;25.50
4308;DHT22;2167;53.448;9.984;2022-11-28T03:33:52;6.00;25.60
4308;DHT22;2167;53.448;9.984;2022-11-28T03:36:23;6.00;25.30
4308;DHT22;2167;53.448;9.984;2022-11-28T03:38:55;6.00;25.10
4308;DHT22;2167;53.448;9.984;2022-11-28T03:41:36;6.00;24.60
4308;DHT22;2167;53.448;9.984;2022-11-28T03:44:07;6.00;24.40
4308;DHT22;2167;53.448;9.984;2022-11-28T03:46:36;6.10;24.20
4308;DHT22;2167;53.448;9.984;2022-11-28T03:49:03;6.10;24.00
4308;DHT22;2167;53.448;9.984;2022-11-28T03:51:39;6.10;24.00
4308;DHT22;2167;53.448;9.984;2022-11-28T03:54:16;6.00;23.40
4308;DHT22;2167;53.448;9.984;2022-11-28T03:59:19;6.10;23.80
4308;DHT22;2167;53.448;9.984;2022-11-28T04:01:55;6.10;23.70
4308;DHT22;2167;53.448;9.984;2022-11-28T04:04:50;6.10;23.90
4308;DHT22;2167;53.448;9.984;2022-11-28T04:07:32;6.10;24.10
4308;DHT22;2167;53.448;9.984;2022-11-28T04:10:00;6.20;23.50
4308;DHT22;2167;53.448;9.984;2022-11-28T04:15:29;6.20;23.00
4308;DHT22;2167;53.448;9.984;2022-11-28T04:17:58;6.20;23.20
4308;DHT22;2167;53.448;9.984;2022-11-28T04:20:34;6.20;23.00
4308;DHT22;2167;53.448;9.984;2022-11-28T04:23:06;6.20;23.20
4308;DHT22;2167;53.448;9.984;2022-11-28T04:25:36;6.20;23.10
4308;DHT22;2167;53.448;9.984;2022-11-28T04:28:08;6.20;23.10
4308;DHT22;2167;53.448;9.984;2022-11-28T04:30:35;6.10;22.40
4308;DHT22;2167;53.448;9.984;2022-11-28T04:33:05;6.10;22.00
4308;DHT22;2167;53.448;9.984;2022-11-28T04:35:34;6.10;22.20
4308;DHT22;2167;53.448;9.984;2022-11-28T04:38:03;6.10;22.90
4308;DHT22;2167;53.448;9.984;2022-11-28T04:40:32;6.20;23.40
4308;DHT22;2167;53.448;9.984;2022-11-28T04:43:07;6.20;22.40
4308;DHT22;2167;53.448;9.984;2022-11-28T04:45:38;6.30;22.00
4308;DHT22;2167;53.448;9.984;2022-11-28T04:48:05;6.20;21.20
4308;DHT22;2167;53.448;9.984;2022-11-28T04:50:43;6.20;21.40
4308;DHT22;2167;53.448;9.984;2022-11-28T04:53:35;6.20;21.50
4308;DHT22;2167;53.448;9.984;2022-11-28T04:56:07;6.30;21.70
4308;DHT22;2167;53.448;9.984;2022-11-28T04:58:40;6.30;22.20
4308;DHT22;2167;53.448;9.984;2022-11-28T05:01:08;6.40;20.90
4308;DHT22;2167;53.448;9.984;2022-11-28T05:03:34;6.50;20.40
4308;DHT22;2167;53.448;9.984;2022-11-28T05:06:01;6.40;20.50
4308;DHT22;2167;53.448;9.984;2022-11-28T05:08:27;6.40;21.10
4308;DHT22;2167;53.448;9.984;2022-11-28T05:10:53;6.40;21.40
4308;DHT22;2167;53.448;9.984;2022-11-28T05:13:19;6.40;21.50
4308;DHT22;2167;53.448;9.984;2022-11-28T05:15:44;6.30;21.80
4308;DHT22;2167;53.448;9.984;2022-11-28T05:18:10;6.30;21.60
4308;DHT22;2167;53.448;9.984;2022-11-28T05:20:36;6.40;22.20
4308;DHT22;2167;53.448;9.984;2022-11-28T05:23:03;6.40;20.80
4308;DHT22;2167;53.448;9.984;2022-11-28T05:25:28;6.40;20.90
4308;DHT22;2167;53.448;9.984;2022-11-28T05:27:54;6.30;21.20
4308;DHT22;2167;53.448;9.984;2022-11-28T05:30:19;6.30;21.50
4308;DHT22;2167;53.448;9.984;2022-11-28T05:32:45;6.30;21.40
4308;DHT22;2167;53.448;9.984;2022-11-28T05:35:10;6.30;21.50
4308;DHT22;2167;53.448;9.984;2022-11-28T05:37:36;6.20;21.20
4308;DHT22;2167;53.448;9.984;2022-11-28T05:40:02;6.30;21.20
4308;DHT22;2167;53.448;9.984;2022-11-28T05:42:31;6.20;21.10
4308;DHT22;2167;53.448;9.984;2022-11-28T05:44:57;6.20;21.90
4308;DHT22;2167;53.448;9.984;2022-11-28T05:47:22;6.10;21.70
4308;DHT22;2167;53.448;9.984;2022-11-28T05:49:50;6.20;21.80
4308;DHT22;2167;53.448;9.984;2022-11-28T05:52:15;6.10;22.10
4308;DHT22;2167;53.448;9.984;2022-11-28T05:54:41;6.20;22.20
4308;DHT22;2167;53.448;9.984;2022-11-28T05:57:06;6.20;22.00
4308;DHT22;2167;53.448;9.984;2022-11-28T05:59:32;6.20;21.90
4308;DHT22;2167;53.448;9.984;2022-11-28T06:01:58;6.20;22.00
4308;DHT22;2167;53.448;9.984;2022-11-28T06:04:24;6.20;22.20
4308;DHT22;2167;53.448;9.984;2022-11-28T06:06:50;6.20;21.70
4308;DHT22;2167;53.448;9.984;2022-11-28T06:09:15;6.10;21.70
4308;DHT22;2167;53.448;9.984;2022-11-28T06:11:44;6.20;21.50
4308;DHT22;2167;53.448;9.984;2022-11-28T06:14:10;6.10;21.20
4308;DHT22;2167;53.448;9.984;2022-11-28T06:16:36;6.10;21.60
4308;DHT22;2167;53.448;9.984;2022-11-28T06:19:04;6.10;21.60
4308;DHT22;2167;53.448;9.984;2022-11-28T06:21:30;6.10;21.90
4308;DHT22;2167;53.448;9.984;2022-11-28T06:23:59;6.10;21.90
4308;DHT22;2167;53.448;9.984;2022-11-28T06:26:26;6.10;21.60
4308;DHT22;2167;53.448;9.984;2022-11-28T06:28:52;6.10;21.80
4308;DHT22;2167;53.448;9.984;2022-11-28T06:31:23;6.10;21.90
4308;DHT22;2167;53.448;9.984;2022-11-28T06:33:49;6.10;22.00
4308;DHT22;2167;53.448;9.984;2022-11-28T06:36:16;6.10;22.50
4308;DHT22;2167;53.448;9.984;2022-11-28T06:38:42;6.10;22.90
4308;DHT22;2167;53.448;9.984;2022-11-28T06:41:09;6.20;23.00
4308;DHT22;2167;53.448;9.984;2022-11-28T06:43:35;6.20;22.70
4308;DHT22;2167;53.448;9.984;2022-11-28T06:46:00;6.20;22.40
4308;DHT22;2167;53.448;9.984;2022-11-28T06:48:26;6.20;21.70
4308;DHT22;2167;53.448;9.984;2022-11-28T06:50:52;6.20;20.80
4308;DHT22;2167;53.448;9.984;2022-11-28T06:53:18;6.20;20.50
4308;DHT22;2167;53.448;9.984;2022-11-28T06:55:44;6.20;20.90
4308;DHT22;2167;53.448;9.984;2022-11-28T06:58:10;6.20;20.40
4308;DHT22;2167;53.448;9.984;2022-11-28T07:00:36;6.10;20.70
4308;DHT22;2167;53.448;9.984;2022-11-28T07:03:02;6.10;20.30
4308;DHT22;2167;53.448;9.984;2022-11-28T07:05:28;6.10;20.40
4308;DHT22;2167;53.448;9.984;2022-11-28T07:07:55;6.10;20.00
4308;DHT22;2167;53.448;9.984;2022-11-28T07:10:21;6.00;20.10
4308;DHT22;2167;53.448;9.984;2022-11-28T07:12:52;6.10;19.90
4308;DHT22;2167;53.448;9.984;2022-11-28T07:15:18;6.10;20.30
4308;DHT22;2167;53.448;9.984;2022-11-28T07:17:43;6.10;19.80
4308;DHT22;2167;53.448;9.984;2022-11-28T07:20:09;6.00;20.00
4308;DHT22;2167;53.448;9.984;2022-11-28T07:22:35;6.10;20.40
4308;DHT22;2167;53.448;9.984;2022-11-28T07:25:00;6.10;20.40
4308;DHT22;2167;53.448;9.984;2022-11-28T07:27:26;6.10;19.90
4308;DHT22;2167;53.448;9.984;2022-11-28T07:29:51;6.10;19.70
4308;DHT22;2167;53.448;9.984;2022-11-28T07:32:17;6.10;20.20
4308;DHT22;2167;53.448;9.984;2022-11-28T07:34:43;6.10;19.50
4308;DHT22;2167;53.448;9.984;2022-11-28T07:37:09;6.10;19.70
4308;DHT22;2167;53.448;9.984;2022-11-28T07:39:35;6.20;19.70
4308;DHT22;2167;53.448;9.984;2022-11-28T07:42:00;6.10;19.40
4308;DHT22;2167;53.448;9.984;2022-11-28T07:44:26;6.10;19.30
4308;DHT22;2167;53.448;9.984;2022-11-28T07:46:51;6.10;19.40
4308;DHT22;2167;53.448;9.984;2022-11-28T07:49:17;6.10;19.60
4308;DHT22;2167;53.448;9.984;2022-11-28T07:51:43;6.00;19.30
4308;DHT22;2167;53.448;9.984;2022-11-28T07:54:08;6.10;19.20
4308;DHT22;2167;53.448;9.984;2022-11-28T07:56:36;6.00;19.60
4308;DHT22;2167;53.448;9.984;2022-11-28T07:59:06;6.10;20.30
4308;DHT22;2167;53.448;9.984;2022-11-28T08:01:33;6.10;19.90
4308;DHT22;2167;53.448;9.984;2022-11-28T08:04:02;6.10;20.10
4308;DHT22;2167;53.448;9.984;2022-11-28T08:06:29;6.10;19.50
4308;DHT22;2167;53.448;9.984;2022-11-28T08:08:55;6.20;19.40
4308;DHT22;2167;53.448;9.984;2022-11-28T08:11:22;6.10;19.00
4308;DHT22;2167;53.448;9.984;2022-11-28T08:13:49;6.10;19.70
4308;DHT22;2167;53.448;9.984;2022-11-28T08:16:19;6.00;20.50
4308;DHT22;2167;53.448;9.984;2022-11-28T08:18:46;6.10;20.30
4308;DHT22;2167;53.448;9.984;2022-11-28T08:21:19;6.20;20.10
4308;DHT22;2167;53.448;9.984;2022-11-28T08:23:46;6.20;19.90
4308;DHT22;2167;53.448;9.984;2022-11-28T08:26:14;6.20;19.70
4308;DHT22;2167;53.448;9.984;2022-11-28T08:28:41;6.20;19.70
4308;DHT22;2167;53.448;9.984;2022-11-28T08:31:12;6.20;19.80
4308;DHT22;2167;53.448;9.984;2022-11-28T08:33:38;6.30;19.90
4308;DHT22;2167;53.448;9.984;2022-11-28T08:36:08;6.30;20.20
4308;DHT22;2167;53.448;9.984;2022-11-28T08:38:34;6.40;19.40
4308;DHT22;2167;53.448;9.984;2022-11-28T08:41:01;6.30;18.90
4308;DHT22;2167;53.448;9.984;2022-11-28T08:43:26;6.40;19.40
4308;DHT22;2167;53.448;9.984;2022-11-28T08:45:52;6.40;18.60
4308;DHT22;2167;53.448;9.984;2022-11-28T08:48:18;6.40;18.60
4308;DHT22;2167;53.448;9.984;2022-11-28T08:50:47;6.30;18.30
4308;DHT22;2167;53.448;9.984;2022-11-28T08:53:13;6.30;19.00
4308;DHT22;2167;53.448;9.984;2022-11-28T08:55:42;6.20;18.90
4308;DHT22;2167;53.448;9.984;2022-11-28T08:58:09;6.20;19.00
4308;DHT22;2167;53.448;9.984;2022-11-28T09:00:35;6.20;19.10
4308;DHT22;2167;53.448;9.984;2022-11-28T09:03:01;6.30;19.80
4308;DHT22;2167;53.448;9.984;2022-11-28T09:05:27;6.30;20.40
4308;DHT22;2167;53.448;9.984;2022-11-28T09:07:53;6.30;19.70
4308;DHT22;2167;53.448;9.984;2022-11-28T09:10:20;6.40;19.40
4308;DHT22;2167;53.448;9.984;2022-11-28T09:12:45;6.40;19.60
4308;DHT22;2167;53.448;9.984;2022-11-28T09:15:11;6.40;19.50
4308;DHT22;2167;53.448;9.984;2022-11-28T09:17:37;6.40;19.30
4308;DHT22;2167;53.448;9.984;2022-11-28T09:20:03;6.40;18.40
4308;DHT22;2167;53.448;9.984;2022-11-28T09:22:28;6.40;18.60
4308;DHT22;2167;53.448;9.984;2022-11-28T09:24:54;6.40;18.90
4308;DHT22;2167;53.448;9.984;2022-11-28T09:27:20;6.40;19.50
4308;DHT22;2167;53.448;9.984;2022-11-28T09:29:47;6.40;19.40
4308;DHT22;2167;53.448;9.984;2022-11-28T09:32:13;6.40;18.70
4308;DHT22;2167;53.448;9.984;2022-11-28T09:34:38;6.40;18.30
4308;DHT22;2167;53.448;9.984;2022-11-28T09:37:04;6.40;18.00
4308;DHT22;2167;53.448;9.984;2022-11-28T09:39:30;6.40;17.80
4308;DHT22;2167;53.448;9.984;2022-11-28T09:42:10;6.40;17.90
4308;DHT22;2167;53.448;9.984;2022-11-28T09:44:57;6.30;17.80
4308;DHT22;2167;53.448;9.984;2022-11-28T09:47:31;6.30;18.00
4308;DHT22;2167;53.448;9.984;2022-11-28T09:50:10;6.40;18.40
4308;DHT22;2167;53.448;9.984;2022-11-28T09:53:04;6.40;18.10
4308;DHT22;2167;53.448;9.984;2022-11-28T09:55:50;6.40;17.90
4308;DHT22;2167;53.448;9.984;2022-11-28T10:03:47;6.20;18.30
4308;DHT22;2167;53.448;9.984;2022-11-28T10:09:03;6.30;19.60
4308;DHT22;2167;53.448;9.984;2022-11-28T10:14:51;6.40;19.60
4308;DHT22;2167;53.448;9.984;2022-11-28T10:17:24;6.40;18.80
4308;DHT22;2167;53.448;9.984;2022-11-28T10:19:59;6.40;18.50
4308;DHT22;2167;53.448;9.984;2022-11-28T10:22:43;6.50;18.10
4308;DHT22;2167;53.448;9.984;2022-11-28T10:25:19;6.50;18.30
4308;DHT22;2167;53.448;9.984;2022-11-28T10:27:46;6.50;18.10
4308;DHT22;2167;53.448;9.984;2022-11-28T10:30:35;6.50;17.90
4308;DHT22;2167;53.448;9.984;2022-11-28T10:33:18;6.50;17.60
4308;DHT22;2167;53.448;9.984;2022-11-28T10:35:49;6.50;17.60
4308;DHT22;2167;53.448;9.984;2022-11-28T10:38:17;6.40;17.70
4308;DHT22;2167;53.448;9.984;2022-11-28T10:43:53;6.50;18.20
4308;DHT22;2167;53.448;9.984;2022-11-28T10:49:16;6.50;17.90
4308;DHT22;2167;53.448;9.984;2022-11-28T10:54:46;6.50;17.10
4308;DHT22;2167;53.448;9.984;2022-11-28T10:57:21;6.50;17.60
4308;DHT22;2167;53.448;9.984;2022-11-28T11:00:00;6.50;17.60
4308;DHT22;2167;53.448;9.984;2022-11-28T11:02:38;6.50;18.10
4308;DHT22;2167;53.448;9.984;2022-11-28T11:05:07;6.50;17.60
4308;DHT22;2167;53.448;9.984;2022-11-28T11:07:35;6.40;17.70
4308;DHT22;2167;53.448;9.984;2022-11-28T11:10:13;6.50;18.70
4308;DHT22;2167;53.448;9.984;2022-11-28T11:12:39;6.50;19.50
4308;DHT22;2167;53.448;9.984;2022-11-28T11:15:23;6.50;20.40
4308;DHT22;2167;53.448;9.984;2022-11-28T11:17:54;6.40;21.00
4308;DHT22;2167;53.448;9.984;2022-11-28T11:22:56;6.30;22.20
4308;DHT22;2167;53.448;9.984;2022-11-28T11:25:23;6.30;22.90
4308;DHT22;2167;53.448;9.984;2022-11-28T11:32:49;6.40;24.50
4308;DHT22;2167;53.448;9.984;2022-11-28T11:35:26;6.50;24.30
4308;DHT22;2167;53.448;9.984;2022-11-28T11:38:14;6.50;24.50
4308;DHT22;2167;53.448;9.984;2022-11-28T11:40:39;6.50;24.30
4308;DHT22;2167;53.448;9.984;2022-11-28T11:43:31;6.50;24.50
4308;DHT22;2167;53.448;9.984;2022-11-28T11:46:08;6.40;24.60
4308;DHT22;2167;53.448;9.984;2022-11-28T11:48:54;6.50;25.10
4308;DHT22;2167;53.448;9.984;2022-11-28T11:51:23;6.50;25.00
4308;DHT22;2167;53.448;9.984;2022-11-28T11:56:39;6.50;25.30
4308;DHT22;2167;53.448;9.984;2022-11-28T11:59:19;6.50;25.10
4308;DHT22;2167;53.448;9.984;2022-11-28T12:01:50;6.50;25.30
4308;DHT22;2167;53.448;9.984;2022-11-28T12:04:42;6.50;25.20
4308;DHT22;2167;53.448;9.984;2022-11-28T12:07:40;6.50;25.50
4308;DHT22;2167;53.448;9.984;2022-11-28T12:10:05;6.50;25.70
4308;DHT22;2167;53.448;9.984;2022-11-28T12:12:35;6.50;25.70
4308;DHT22;2167;53.448;9.984;2022-11-28T12:15:00;6.50;25.60
4308;DHT22;2167;53.448;9.984;2022-11-28T12:22:55;6.60;26.70
4308;DHT22;2167;53.448;9.984;2022-11-28T12:34:07;6.50;27.00
4308;DHT22;2167;53.448;9.984;2022-11-28T12:39:35;6.50;27.40
4308;DHT22;2167;53.448;9.984;2022-11-28T12:42:26;6.50;27.50
4308;DHT22;2167;53.448;9.984;2022-11-28T12:45:15;6.50;27.30
4308;DHT22;2167;53.448;9.984;2022-11-28T12:50:45;6.50;27.80
4308;DHT22;2167;53.448;9.984;2022-11-28T12:58:50;6.30;28.00
4308;DHT22;2167;53.448;9.984;2022-11-28T13:04:26;6.30;28.50
4308;DHT22;2167;53.448;9.984;2022-11-28T13:09:57;6.20;29.10
4308;DHT22;2167;53.448;9.984;2022-11-28T13:12:34;6.20;29.00
4308;DHT22;2167;53.448;9.984;2022-11-28T13:15:42;6.20;29.10
4308;DHT22;2167;53.448;9.984;2022-11-28T13:18:35;6.20;29.20
4308;DHT22;2167;53.448;9.984;2022-11-28T13:21:34;6.10;29.10
4308;DHT22;2167;53.448;9.984;2022-11-28T13:24:22;6.10;29.10
4308;DHT22;2167;53.448;9.984;2022-11-28T13:27:29;6.10;29.70
4308;DHT22;2167;53.448;9.984;2022-11-28T13:30:21;6.10;30.00
4308;DHT22;2167;53.448;9.984;2022-11-28T13:35:43;6.20;30.20
4308;DHT22;2167;53.448;9.984;2022-11-28T13:38:17;6.20;30.20
4308;DHT22;2167;53.448;9.984;2022-11-28T13:46:06;6.20;30.50
4308;DHT22;2167;53.448;9.984;2022-11-28T13:53:45;6.10;30.50
4308;DHT22;2167;53.448;9.984;2022-11-28T13:56:25;6.10;30.50
4308;DHT22;2167;53.448;9.984;2022-11-28T13:58:57;6.10;31.00
4308;DHT22;2167;53.448;9.984;2022-11-28T14:01:29;6.10;31.50
4308;DHT22;2167;53.448;9.984;2022-11-28T14:06:39;6.10;31.70
4308;DHT22;2167;53.448;9.984;2022-11-28T14:17:24;6.20;30.50
4308;DHT22;2167;53.448;9.984;2022-11-28T14:25:44;6.10;30.20
4308;DHT22;2167;53.448;9.984;2022-11-28T14:30:59;6.00;30.40
4308;DHT22;2167;53.448;9.984;2022-11-28T14:33:39;5.90;30.20
4308;DHT22;2167;53.448;9.984;2022-11-28T14:52:40;6.00;30.40
4308;DHT22;2167;53.448;9.984;2022-11-28T14:57:39;5.90;30.40
4308;DHT22;2167;53.448;9.984;2022-11-28T15:00:23;5.90;30.60
4308;DHT22;2167;53.448;9.984;2022-11-28T15:03:19;5.90;30.60
4308;DHT22;2167;53.448;9.984;2022-11-28T15:05:44;5.80;30.10
4308;DHT22;2167;53.448;9.984;2022-11-28T15:08:37;5.80;30.30
4308;DHT22;2167;53.448;9.984;2022-11-28T15:16:33;5.80;31.10
4308;DHT22;2167;53.448;9.984;2022-11-28T15:21:47;5.90;31.20
4308;DHT22;2167;53.448;9.984;2022-11-28T15:24:15;5.80;30.50
4308;DHT22;2167;53.448;9.984;2022-11-28T15:26:41;5.80;30.20
4308;DHT22;2167;53.448;9.984;2022-11-28T15:29:20;5.80;30.00
4308;DHT22;2167;53.448;9.984;2022-11-28T15:31:48;5.70;30.30
4308;DHT22;2167;53.448;9.984;2022-11-28T15:34:36;5.80;30.80
4308;DHT22;2167;53.448;9.984;2022-11-28T15:37:06;5.80;31.00
4308;DHT22;2167;53.448;9.984;2022-11-28T15:39:39;5.80;30.90
4308;DHT22;2167;53.448;9.984;2022-11-28T15:42:21;5.80;30.80
4308;DHT22;2167;53.448;9.984;2022-11-28T15:44:56;5.80;30.40
4308;DHT22;2167;53.448;9.984;2022-11-28T15:47:22;5.80;30.40
4308;DHT22;2167;53.448;9.984;2022-11-28T15:50:00;5.80;30.10
4308;DHT22;2167;53.448;9.984;2022-11-28T15:52:26;5.80;30.00
4308;DHT22;2167;53.448;9.984;2022-11-28T15:54:52;5.80;30.00
4308;DHT22;2167;53.448;9.984;2022-11-28T15:57:22;5.80;30.30
4308;DHT22;2167;53.448;9.984;2022-11-28T15:59:49;5.80;30.60
4308;DHT22;2167;53.448;9.984;2022-11-28T16:02:22;5.80;30.00
4308;DHT22;2167;53.448;9.984;2022-11-28T16:05:16;5.80;30.00
4308;DHT22;2167;53.448;9.984;2022-11-28T16:07:47;5.80;30.10
4308;DHT22;2167;53.448;9.984;2022-11-28T16:10:23;5.80;30.10
4308;DHT22;2167;53.448;9.984;2022-11-28T16:12:51;5.80;30.10
4308;DHT22;2167;53.448;9.984;2022-11-28T16:15:21;5.80;29.90
4308;DHT22;2167;53.448;9.984;2022-11-28T16:17:47;5.70;29.80
4308;DHT22;2167;53.448;9.984;2022-11-28T16:20:33;5.70;30.00
4308;DHT22;2167;53.448;9.984;2022-11-28T16:23:05;5.70;29.90
4308;DHT22;2167;53.448;9.984;2022-11-28T16:25:31;5.80;29.90
4308;DHT22;2167;53.448;9.984;2022-11-28T16:28:00;5.80;29.90
4308;DHT22;2167;53.448;9.984;2022-11-28T16:30:37;5.80;29.90
4308;DHT22;2167;53.448;9.984;2022-11-28T16:33:41;5.80;29.90
4308;DHT22;2167;53.448;9.984;2022-11-28T16:38:37;5.70;30.00
4308;DHT22;2167;53.448;9.984;2022-11-28T16:41:02;5.70;30.00
4308;DHT22;2167;53.448;9.984;2022-11-28T16:43:37;5.60;30.00
4308;DHT22;2167;53.448;9.984;2022-11-28T16:46:05;5.60;30.20
4308;DHT22;2167;53.448;9.984;2022-11-28T16:48:34;5.60;30.60
4308;DHT22;2167;53.448;9.984;2022-11-28T16:56:41;5.60;31.00
4308;DHT22;2167;53.448;9.984;2022-11-28T16:59:14;5.70;31.30
4308;DHT22;2167;53.448;9.984;2022-11-28T17:01:42;5.70;30.30
4308;DHT22;2167;53.448;9.984;2022-11-28T17:04:22;5.70;29.80
4308;DHT22;2167;53.448;9.984;2022-11-28T17:06:50;5.70;29.50
4308;DHT22;2167;53.448;9.984;2022-11-28T17:09:16;5.70;29.50
4308;DHT22;2167;53.448;9.984;2022-11-28T17:11:54;5.70;29.70
4308;DHT22;2167;53.448;9.984;2022-11-28T17:14:20;5.60;29.50
4308;DHT22;2167;53.448;9.984;2022-11-28T17:16:46;5.60;29.70
4308;DHT22;2167;53.448;9.984;2022-11-28T17:19:11;5.60;29.80
4308;DHT22;2167;53.448;9.984;2022-11-28T17:21:45;5.60;30.00
4308;DHT22;2167;53.448;9.984;2022-11-28T17:24:21;5.60;30.00
4308;DHT22;2167;53.448;9.984;2022-11-28T17:26:50;5.70;29.90
4308;DHT22;2167;53.448;9.984;2022-11-28T17:29:16;5.60;29.90
4308;DHT22;2167;53.448;9.984;2022-11-28T17:31:43;5.60;30.10
4308;DHT22;2167;53.448;9.984;2022-11-28T17:36:39;5.70;30.70
4308;DHT22;2167;53.448;9.984;2022-11-28T17:39:05;5.80;30.10
4308;DHT22;2167;53.448;9.984;2022-11-28T17:41:30;5.80;30.00
4308;DHT22;2167;53.448;9.984;2022-11-28T17:43:56;5.80;30.00
4308;DHT22;2167;53.448;9.984;2022-11-28T17:46:21;5.80;30.00
4308;DHT22;2167;53.448;9.984;2022-11-28T17:48:47;5.80;29.70
4308;DHT22;2167;53.448;9.984;2022-11-28T17:51:12;5.80;29.70
4308;DHT22;2167;53.448;9.984;2022-11-28T17:53:38;5.80;29.90
4308;DHT22;2167;53.448;9.984;2022-11-28T17:56:04;5.80;30.00
4308;DHT22;2167;53.448;9.984;2022-11-28T17:58:29;5.80;29.80
4308;DHT22;2167;53.448;9.984;2022-11-28T18:00:55;5.80;29.80
4308;DHT22;2167;53.448;9.984;2022-11-28T18:03:21;5.80;30.00
4308;DHT22;2167;53.448;9.984;2022-11-28T18:05:48;5.80;30.00
4308;DHT22;2167;53.448;9.984;2022-11-28T18:08:16;5.80;30.00
4308;DHT22;2167;53.448;9.984;2022-11-28T18:10:42;5.80;30.00
4308;DHT22;2167;53.448;9.984;2022-11-28T18:13:09;5.80;29.90
4308;DHT22;2167;53.448;9.984;2022-11-28T18:15:36;5.90;30.20
4308;DHT22;2167;53.448;9.984;2022-11-28T18:18:04;5.90;29.70
4308;DHT22;2167;53.448;9.984;2022-11-28T18:20:30;5.90;29.70
4308;DHT22;2167;53.448;9.984;2022-11-28T18:22:57;5.90;29.40
4308;DHT22;2167;53.448;9.984;2022-11-28T18:25:24;5.80;29.30
4308;DHT22;2167;53.448;9.984;2022-11-28T18:27:50;5.80;29.20
4308;DHT22;2167;53.448;9.984;2022-11-28T18:30:16;5.80;29.10
4308;DHT22;2167;53.448;9.984;2022-11-28T18:32:43;5.70;28.80
4308;DHT22;2167;53.448;9.984;2022-11-28T18:35:09;5.70;28.80
4308;DHT22;2167;53.448;9.984;2022-11-28T18:37:35;5.70;29.10
4308;DHT22;2167;53.448;9.984;2022-11-28T18:40:00;5.60;29.00
4308;DHT22;2167;53.448;9.984;2022-11-28T18:42:26;5.70;29.40
4308;DHT22;2167;53.448;9.984;2022-11-28T18:44:52;5.70;29.50
4308;DHT22;2167;53.448;9.984;2022-11-28T18:47:18;5.70;29.10
4308;DHT22;2167;53.448;9.984;2022-11-28T18:49:43;5.60;29.20
4308;DHT22;2167;53.448;9.984;2022-11-28T18:52:09;5.70;29.40
4308;DHT22;2167;53.448;9.984;2022-11-28T18:54:34;5.70;29.30
4308;DHT22;2167;53.448;9.984;2022-11-28T18:57:05;5.60;29.30
4308;DHT22;2167;53.448;9.984;2022-11-28T18:59:31;5.70;29.50
4308;DHT22;2167;53.448;9.984;2022-11-28T19:01:57;5.60;29.50
4308;DHT22;2167;53.448;9.984;2022-11-28T19:04:23;5.60;29.30
4308;DHT22;2167;53.448;9.984;2022-11-28T19:06:48;5.70;29.60
4308;DHT22;2167;53.448;9.984;2022-11-28T19:09:15;5.70;29.50
4308;DHT22;2167;53.448;9.984;2022-11-28T19:11:42;5.70;29.50
4308;DHT22;2167;53.448;9.984;2022-11-28T19:14:13;5.70;29.50
4308;DHT22;2167;53.448;9.984;2022-11-28T19:16:39;5.70;29.70
4308;DHT22;2167;53.448;9.984;2022-11-28T19:19:05;5.80;29.60
4308;DHT22;2167;53.448;9.984;2022-11-28T19:21:33;5.70;29.30
4308;DHT22;2167;53.448;9.984;2022-11-28T19:23:59;5.70;29.40
4308;DHT22;2167;53.448;9.984;2022-11-28T19:26:27;5.70;29.20
4308;DHT22;2167;53.448;9.984;2022-11-28T19:28:54;5.70;29.10
4308;DHT22;2167;53.448;9.984;2022-11-28T19:31:25;5.70;29.10
4308;DHT22;2167;53.448;9.984;2022-11-28T19:36:24;5.70;29.30
4308;DHT22;2167;53.448;9.984;2022-11-28T19:38:49;5.70;29.40